Time;durP1;ratioP1;P1;durP2;ratioP2;P2;SDS_P1;SDS_P2;PMS_P1;PMS_P2;Temp;Humidity;BMP_temperature;BMP_pressure;BME280_temperature;BME280_humidity;BME280_pressure;Samples;Min_cycle;Max_cycle;Signal;HPM_P1;HPM_P2
2020/12/01 00:02:37;;;;;;;49.25;34.80;;;;;;;;;;5074874;28;20347;-63
2020/12/01 00:05:25;;;;;;;52.65;36.33;;;;;;;;;;5075247;28;20062;-63
2020/12/01 00:08:10;;;;;;;52.88;34.58;;;;;;;;;;5077657;28;20032;-63
2020/12/01 00:10:56;;;;;;;49.53;34.53;;;;;;;;;;5074482;28;20029;-62
2020/12/01 00:13:42;;;;;;;48.42;32.97;;;;;;;;;;5079662;28;20068;-62
2020/12/01 00:16:28;;;;;;;53.00;34.92;;;;;;;;;;5061720;28;20884;-62
2020/12/01 00:19:14;;;;;;;51.65;35.17;;;;;;;;;;5078809;28;20044;-62
2020/12/01 00:21:59;;;;;;;52.15;34.50;;;;;;;;;;5075248;28;20032;-62
2020/12/01 00:24:45;;;;;;;51.65;34.58;;;;;;;;;;5077341;28;20036;-63
2020/12/01 00:27:31;;;;;;;51.70;33.88;;;;;;;;;;5075453;28;20043;-62
2020/12/01 00:30:21;;;;;;;49.95;33.80;;;;;;;;;;5078317;28;20036;-63
2020/12/01 00:33:07;;;;;;;51.10;34.65;;;;;;;;;;5078478;28;20075;-63
2020/12/01 00:35:52;;;;;;;48.08;33.78;;;;;;;;;;5073204;28;20369;-63
2020/12/01 00:38:40;;;;;;;45.78;33.47;;;;;;;;;;5077640;28;20055;-63
2020/12/01 00:41:25;;;;;;;43.38;30.60;;;;;;;;;;5075010;28;20721;-63
2020/12/01 00:44:11;;;;;;;46.50;32.15;;;;;;;;;;5077077;28;20036;-63
2020/12/01 00:46:56;;;;;;;46.67;31.70;;;;;;;;;;5073808;28;20070;-63
2020/12/01 00:49:42;;;;;;;50.10;32.38;;;;;;;;;;5078921;28;20039;-63
2020/12/01 00:52:28;;;;;;;46.42;32.53;;;;;;;;;;5075948;28;20493;-63
2020/12/01 00:55:13;;;;;;;44.50;31.48;;;;;;;;;;5076804;28;20532;-62
2020/12/01 00:57:59;;;;;;;49.15;34.20;;;;;;;;;;5076467;28;20036;-63
2020/12/01 01:00:45;;;;;;;47.08;33.47;;;;;;;;;;5062420;28;20044;-63
2020/12/01 01:03:31;;;;;;;47.58;32.55;;;;;;;;;;5075273;28;20044;-63
2020/12/01 01:06:16;;;;;;;45.63;32.55;;;;;;;;;;5076338;28;20036;-62
2020/12/01 01:09:04;;;;;;;48.83;34.78;;;;;;;;;;5062969;28;20455;-63
2020/12/01 01:11:49;;;;;;;42.90;32.38;;;;;;;;;;5074273;28;20548;-63
2020/12/01 01:14:35;;;;;;;47.00;32.92;;;;;;;;;;5076529;28;20655;-63
2020/12/01 01:17:21;;;;;;;47.80;32.80;;;;;;;;;;5076303;28;20119;-63
2020/12/01 01:20:08;;;;;;;52.33;34.83;;;;;;;;;;5076603;28;20551;-62
2020/12/01 01:22:54;;;;;;;42.33;31.13;;;;;;;;;;5076896;28;20036;-63
2020/12/01 01:25:40;;;;;;;52.13;32.05;;;;;;;;;;5076046;28;20050;-63
2020/12/01 01:28:26;;;;;;;48.65;31.70;;;;;;;;;;5076406;28;20115;-62
2020/12/01 01:31:12;;;;;;;49.75;32.97;;;;;;;;;;5076280;28;20035;-63
2020/12/01 01:33:58;;;;;;;40.05;31.25;;;;;;;;;;5075546;28;20203;-62
2020/12/01 01:36:43;;;;;;;45.28;32.85;;;;;;;;;;5076327;28;20553;-62
2020/12/01 01:39:29;;;;;;;43.72;32.03;;;;;;;;;;5074712;28;20036;-62
2020/12/01 01:42:15;;;;;;;52.33;33.40;;;;;;;;;;5075287;28;20029;-62
2020/12/01 01:45:00;;;;;;;49.80;32.72;;;;;;;;;;5076201;28;20666;-63
2020/12/01 01:47:46;;;;;;;44.15;33.42;;;;;;;;;;5061412;28;20047;-62
2020/12/01 01:50:32;;;;;;;49.80;34.42;;;;;;;;;;5074997;28;20042;-62
2020/12/01 01:53:18;;;;;;;50.47;34.33;;;;;;;;;;5074755;28;20051;-62
2020/12/01 01:56:08;;;;;;;47.83;33.05;;;;;;;;;;5074018;28;20044;-62
2020/12/01 01:58:56;;;;;;;50.75;33.17;;;;;;;;;;5075659;28;20114;-62
2020/12/01 02:01:43;;;;;;;50.75;32.35;;;;;;;;;;5075329;28;20090;-62
2020/12/01 02:04:31;;;;;;;51.10;33.50;;;;;;;;;;5073824;28;20101;-62
2020/12/01 02:07:18;;;;;;;50.13;32.05;;;;;;;;;;5075266;28;20044;-63
2020/12/01 02:10:04;;;;;;;42.67;32.35;;;;;;;;;;5077046;28;20120;-63
2020/12/01 02:12:53;;;;;;;47.67;34.05;;;;;;;;;;5073979;28;20435;-63
2020/12/01 02:15:39;;;;;;;50.80;32.67;;;;;;;;;;5074343;28;20044;-62
2020/12/01 02:18:30;;;;;;;47.28;32.42;;;;;;;;;;5073103;28;20366;-62
2020/12/01 02:21:33;;;;;;;45.78;32.28;;;;;;;;;;5073711;28;20378;-62
2020/12/01 02:24:27;;;;;;;41.13;31.83;;;;;;;;;;5072460;28;20067;-63
2020/12/01 02:27:15;;;;;;;43.28;30.77;;;;;;;;;;5074465;28;20251;-62
2020/12/01 02:30:00;;;;;;;42.88;31.23;;;;;;;;;;5076100;28;20036;-62
2020/12/01 02:32:46;;;;;;;46.95;31.70;;;;;;;;;;5069537;28;20042;-62
2020/12/01 02:36:55;;;;;;;41.45;29.35;;;;;;;;;;5114455;27;20364;-63
2020/12/01 02:39:41;;;;;;;40.63;29.40;;;;;;;;;;5130105;27;20035;-63
2020/12/01 02:42:27;;;;;;;43.80;29.95;;;;;;;;;;5130254;27;20106;-63
2020/12/01 02:45:13;;;;;;;51.38;31.95;;;;;;;;;;5133113;27;20031;-62
2020/12/01 02:47:58;;;;;;;45.95;30.48;;;;;;;;;;5133212;27;20038;-63
2020/12/01 02:50:44;;;;;;;43.78;30.45;;;;;;;;;;5120097;27;20526;-64
2020/12/01 02:53:30;;;;;;;46.58;29.90;;;;;;;;;;5131590;27;20035;-63
2020/12/01 02:56:15;;;;;;;41.92;31.50;;;;;;;;;;5131811;27;20038;-63
2020/12/01 02:59:01;;;;;;;43.38;29.85;;;;;;;;;;5131770;27;20067;-63
2020/12/01 03:01:47;;;;;;;44.70;30.20;;;;;;;;;;5130664;27;20497;-63
2020/12/01 03:04:33;;;;;;;40.25;30.38;;;;;;;;;;5130139;27;20036;-63
2020/12/01 03:07:19;;;;;;;40.75;29.02;;;;;;;;;;5131339;27;20038;-63
2020/12/01 03:10:06;;;;;;;44.67;31.02;;;;;;;;;;5133627;27;20553;-63
2020/12/01 03:12:51;;;;;;;47.65;28.65;;;;;;;;;;5132231;27;20049;-63
2020/12/01 03:15:37;;;;;;;45.72;30.48;;;;;;;;;;5134290;27;20420;-63
2020/12/01 03:18:23;;;;;;;45.25;30.98;;;;;;;;;;5133241;27;20031;-63
2020/12/01 03:21:11;;;;;;;39.67;29.17;;;;;;;;;;5132096;27;20047;-63
2020/12/01 03:23:56;;;;;;;43.75;31.92;;;;;;;;;;5118236;27;20031;-63
2020/12/01 03:26:43;;;;;;;42.67;29.85;;;;;;;;;;5132770;27;20031;-63
2020/12/01 03:29:29;;;;;;;44.70;29.38;;;;;;;;;;5130361;27;20046;-62
2020/12/01 03:32:14;;;;;;;41.58;30.05;;;;;;;;;;5127680;27;20039;-63
2020/12/01 03:35:00;;;;;;;37.88;29.88;;;;;;;;;;5130996;27;20027;-64
2020/12/01 03:37:46;;;;;;;39.60;29.95;;;;;;;;;;5125894;27;20129;-63
2020/12/01 03:40:31;;;;;;;38.40;29.63;;;;;;;;;;5132449;27;20041;-63
2020/12/01 03:43:17;;;;;;;38.03;27.95;;;;;;;;;;5132092;27;20042;-64
2020/12/01 03:46:04;;;;;;;37.50;27.38;;;;;;;;;;5130029;27;20030;-64
2020/12/01 03:48:49;;;;;;;39.28;29.15;;;;;;;;;;5114657;27;20055;-64
2020/12/01 03:51:35;;;;;;;37.28;28.25;;;;;;;;;;5116127;27;20031;-65
2020/12/01 03:54:20;;;;;;;33.70;27.52;;;;;;;;;;5121093;27;20460;-64
2020/12/01 03:57:06;;;;;;;37.53;27.70;;;;;;;;;;5118847;27;20106;-65
2020/12/01 03:59:52;;;;;;;35.10;27.33;;;;;;;;;;5115608;27;20096;-65
2020/12/01 04:02:37;;;;;;;38.30;27.80;;;;;;;;;;5116427;27;20420;-65
2020/12/01 04:05:26;;;;;;;43.08;28.45;;;;;;;;;;5117611;27;20043;-66
2020/12/01 04:08:12;;;;;;;36.22;27.65;;;;;;;;;;5116697;27;20031;-66
2020/12/01 04:11:01;;;;;;;34.80;26.45;;;;;;;;;;5117112;27;20059;-66
2020/12/01 04:13:47;;;;;;;37.53;28.88;;;;;;;;;;5117561;27;20042;-64
2020/12/01 04:16:32;;;;;;;34.15;27.48;;;;;;;;;;5116053;27;20106;-64
2020/12/01 04:19:18;;;;;;;39.65;27.73;;;;;;;;;;5115856;27;20730;-64
2020/12/01 04:22:04;;;;;;;37.85;28.90;;;;;;;;;;5118414;27;20193;-65
2020/12/01 04:24:49;;;;;;;36.58;27.80;;;;;;;;;;5120913;27;20042;-65
2020/12/01 04:27:37;;;;;;;38.13;28.10;;;;;;;;;;5103824;27;20036;-65
2020/12/01 04:30:23;;;;;;;40.33;29.25;;;;;;;;;;5119974;27;20110;-66
2020/12/01 04:33:09;;;;;;;38.80;28.77;;;;;;;;;;5121409;27;20626;-66
2020/12/01 04:35:55;;;;;;;38.35;28.83;;;;;;;;;;5121200;27;20261;-67
2020/12/01 04:38:40;;;;;;;39.45;27.63;;;;;;;;;;5119904;27;20031;-67
2020/12/01 04:41:26;;;;;;;38.50;27.58;;;;;;;;;;5120639;27;20031;-66
2020/12/01 04:44:44;;;;;;;36.90;28.42;;;;;;;;;;5122812;27;20027;-67
2020/12/01 04:47:35;;;;;;;37.20;26.75;;;;;;;;;;5115697;27;20054;-67
2020/12/01 04:50:35;;;;;;;38.03;26.95;;;;;;;;;;5117755;27;20042;-67
2020/12/01 04:53:39;;;;;;;41.72;29.40;;;;;;;;;;5115242;27;20067;-68
2020/12/01 04:56:36;;;;;;;41.35;29.17;;;;;;;;;;5114507;27;20118;-67
2020/12/01 04:59:40;;;;;;;38.28;27.95;;;;;;;;;;5115124;27;20039;-67
2020/12/01 05:02:49;;;;;;;34.67;26.70;;;;;;;;;;5104432;27;20049;-68
2020/12/01 05:05:55;;;;;;;34.42;26.20;;;;;;;;;;5116525;27;20105;-67
2020/12/01 05:09:01;;;;;;;35.47;26.75;;;;;;;;;;5117065;27;20302;-67
2020/12/01 05:11:59;;;;;;;35.85;26.10;;;;;;;;;;5113037;27;20035;-68
2020/12/01 05:14:53;;;;;;;40.85;28.55;;;;;;;;;;5118339;27;21005;-68
2020/12/01 05:17:45;;;;;;;34.67;25.58;;;;;;;;;;5115996;27;20054;-67
2020/12/01 05:20:31;;;;;;;36.53;26.08;;;;;;;;;;5114858;27;20484;-67
2020/12/01 05:23:22;;;;;;;36.88;26.77;;;;;;;;;;5115353;27;20074;-67
2020/12/01 05:26:12;;;;;;;37.13;25.77;;;;;;;;;;5116657;27;20038;-67
2020/12/01 05:28:57;;;;;;;34.63;25.27;;;;;;;;;;5113983;27;20061;-68
2020/12/01 05:31:43;;;;;;;35.38;24.60;;;;;;;;;;5115128;27;20070;-68
2020/12/01 05:34:29;;;;;;;38.17;26.17;;;;;;;;;;5116758;27;20114;-68
2020/12/01 05:37:14;;;;;;;34.83;24.85;;;;;;;;;;5115058;27;20035;-68
2020/12/01 05:40:08;;;;;;;32.72;25.17;;;;;;;;;;5115108;27;20173;-68
2020/12/01 05:42:54;;;;;;;35.63;24.35;;;;;;;;;;5113749;27;20727;-69
2020/12/01 05:45:39;;;;;;;35.40;25.23;;;;;;;;;;5117884;27;20031;-69
2020/12/01 05:48:45;;;;;;;34.10;24.15;;;;;;;;;;5114298;27;20127;-69
2020/12/01 05:51:44;;;;;;;32.72;23.98;;;;;;;;;;5112608;27;20535;-69
2020/12/01 05:54:34;;;;;;;32.75;23.67;;;;;;;;;;5115461;27;20031;-69
2020/12/01 05:57:26;;;;;;;29.05;23.23;;;;;;;;;;5112604;27;20028;-69
2020/12/01 06:00:19;;;;;;;;;;;;;;;;;;5114216;27;20062;-69
2020/12/01 06:03:13;;;;;;;29.95;23.15;;;;;;;;;;5118207;27;20013;-69
2020/12/01 06:06:00;;;;;;;28.58;22.92;;;;;;;;;;5116696;27;20122;-69
2020/12/01 06:08:57;;;;;;;30.05;23.30;;;;;;;;;;5117224;27;20039;-69
2020/12/01 06:11:55;;;;;;;32.13;25.58;;;;;;;;;;5115991;27;20032;-69
2020/12/01 06:14:52;;;;;;;31.75;24.60;;;;;;;;;;5117583;27;20400;-69
2020/12/01 06:17:57;;;;;;;31.17;23.27;;;;;;;;;;5113903;27;20051;-68
2020/12/01 06:20:53;;;;;;;30.30;22.60;;;;;;;;;;5115838;27;20037;-69
2020/12/01 06:23:51;;;;;;;33.00;24.52;;;;;;;;;;5115084;27;20043;-69
2020/12/01 06:27:03;;;;;;;28.60;23.02;;;;;;;;;;5112248;27;20123;-68
2020/12/01 06:29:54;;;;;;;31.42;23.35;;;;;;;;;;5113975;27;20080;-68
2020/12/01 06:32:40;;;;;;;32.17;21.77;;;;;;;;;;5113239;28;20035;-69
2020/12/01 06:35:42;;;;;;;30.08;23.80;;;;;;;;;;5098464;28;20082;-69
2020/12/01 06:38:49;;;;;;;;;;;;;;;;;;5113555;28;20129;-68
2020/12/01 06:41:40;;;;;;;37.17;26.73;;;;;;;;;;5111452;28;20006;-69
2020/12/01 06:44:27;;;;;;;35.53;24.20;;;;;;;;;;5115984;28;20042;-69
2020/12/01 06:47:13;;;;;;;31.25;23.17;;;;;;;;;;5114493;28;20150;-69
2020/12/01 06:50:05;;;;;;;30.88;24.23;;;;;;;;;;5115253;28;20059;-68
2020/12/01 06:53:04;;;;;;;31.25;23.67;;;;;;;;;;5113721;28;20567;-68
2020/12/01 06:55:55;;;;;;;29.63;22.38;;;;;;;;;;5114505;28;20049;-68
2020/12/01 06:58:49;;;;;;;33.75;23.52;;;;;;;;;;5113953;28;20567;-68
2020/12/01 07:01:36;;;;;;;30.10;22.67;;;;;;;;;;5113678;27;20070;-68
2020/12/01 07:04:25;;;;;;;28.92;23.20;;;;;;;;;;5116048;28;20122;-69
2020/12/01 07:07:32;;;;;;;27.85;22.45;;;;;;;;;;5115486;28;20039;-68
2020/12/01 07:10:20;;;;;;;30.05;22.48;;;;;;;;;;5117012;28;20070;-68
2020/12/01 07:13:15;;;;;;;33.63;24.92;;;;;;;;;;5115581;28;20031;-67
2020/12/01 07:16:37;;;;;;;31.13;23.60;;;;;;;;;;5110882;28;20031;-67
2020/12/01 07:19:31;;;;;;;34.78;23.63;;;;;;;;;;5115959;28;20051;-67
2020/12/01 07:22:26;;;;;;;28.63;23.20;;;;;;;;;;5116305;27;20040;-67
2020/12/01 07:25:25;;;;;;;34.95;24.38;;;;;;;;;;5118489;27;20519;-67
2020/12/01 07:28:18;;;;;;;29.98;23.45;;;;;;;;;;5118568;27;20038;-67
2020/12/01 07:31:19;;;;;;;30.23;22.08;;;;;;;;;;5121441;27;20031;-67
2020/12/01 07:34:17;;;;;;;34.95;23.33;;;;;;;;;;5122537;27;20091;-67
2020/12/01 07:37:31;;;;;;;35.78;24.58;;;;;;;;;;5113178;27;20601;-66
2020/12/01 07:40:23;;;;;;;34.03;24.25;;;;;;;;;;5118051;27;20078;-67
2020/12/01 07:43:11;;;;;;;31.17;24.27;;;;;;;;;;5112281;27;20031;-68
2020/12/01 07:46:02;;;;;;;30.50;23.65;;;;;;;;;;5113282;27;20024;-67
2020/12/01 07:48:57;;;;;;;30.25;23.00;;;;;;;;;;5116930;27;20104;-67
2020/12/01 07:51:44;;;;;;;30.13;22.90;;;;;;;;;;5112631;27;20168;-66
2020/12/01 07:54:30;;;;;;;33.55;23.50;;;;;;;;;;5113161;27;20035;-67
2020/12/01 07:57:19;;;;;;;31.10;22.15;;;;;;;;;;5115643;27;20042;-67
2020/12/01 08:00:05;;;;;;;26.05;22.17;;;;;;;;;;5117270;27;20039;-67
2020/12/01 08:02:59;;;;;;;29.13;20.88;;;;;;;;;;5115193;27;20512;-67
2020/12/01 08:05:46;;;;;;;28.52;21.55;;;;;;;;;;5118693;27;20058;-67
2020/12/01 08:08:38;;;;;;;26.55;20.38;;;;;;;;;;5117786;27;20054;-67
2020/12/01 08:11:23;;;;;;;;;;;;;;;;;;5109398;27;20257;-68
2020/12/01 08:14:10;;;;;;;30.70;21.10;;;;;;;;;;5119473;27;19920;-67
2020/12/01 08:17:04;;;;;;;27.15;20.48;;;;;;;;;;5117929;27;20030;-67
2020/12/01 08:19:52;;;;;;;27.65;20.45;;;;;;;;;;5117923;27;20035;-67
2020/12/01 08:22:39;;;;;;;26.73;20.60;;;;;;;;;;5113214;27;20122;-67
2020/12/01 08:25:28;;;;;;;27.60;22.05;;;;;;;;;;5118757;27;20111;-67
2020/12/01 08:28:32;;;;;;;28.10;21.88;;;;;;;;;;5102626;27;20055;-67
2020/12/01 08:31:42;;;;;;;25.27;20.17;;;;;;;;;;5117118;27;20396;-67
2020/12/01 08:34:45;;;;;;;32.38;21.38;;;;;;;;;;5117625;27;20078;-68
2020/12/01 08:37:50;;;;;;;24.25;19.67;;;;;;;;;;5114137;27;20077;-68
2020/12/01 08:40:49;;;;;;;26.45;21.15;;;;;;;;;;5118372;27;20032;-65
2020/12/01 08:44:10;;;;;;;26.23;19.88;;;;;;;;;;5116562;27;20039;-66
2020/12/01 08:46:56;;;;;;;31.10;20.17;;;;;;;;;;5115083;27;20376;-67
2020/12/01 08:49:48;;;;;;;26.20;19.65;;;;;;;;;;5119534;27;20085;-66
2020/12/01 08:52:40;;;;;;;29.08;20.00;;;;;;;;;;5116414;27;20142;-59
2020/12/01 08:55:55;;;;;;;25.38;19.90;;;;;;;;;;5108856;27;20040;-59
2020/12/01 08:58:46;;;;;;;22.63;19.00;;;;;;;;;;5115025;27;20032;-59
2020/12/01 09:01:40;;;;;;;25.08;18.88;;;;;;;;;;5112210;27;20744;-59
2020/12/01 09:04:29;;;;;;;23.42;18.35;;;;;;;;;;5117455;27;20046;-59
2020/12/01 09:07:18;;;;;;;29.92;20.52;;;;;;;;;;5116925;27;20036;-59
2020/12/01 09:10:09;;;;;;;25.92;19.08;;;;;;;;;;5117347;27;20503;-59
2020/12/01 09:13:46;;;;;;;30.23;20.15;;;;;;;;;;5116487;27;20043;-60
2020/12/01 09:16:59;;;;;;;23.50;19.10;;;;;;;;;;5115938;27;20057;-60
2020/12/01 09:22:29;;;;;;;26.13;18.23;;;;;;;;;;5114713;27;20039;-60
2020/12/01 09:25:24;;;;;;;26.80;19.52;;;;;;;;;;5115862;27;20098;-59
2020/12/01 09:28:18;;;;;;;26.13;19.30;;;;;;;;;;5114929;27;20027;-59
2020/12/01 09:31:05;;;;;;;25.92;20.48;;;;;;;;;;5116792;27;20422;-60
2020/12/01 09:33:57;;;;;;;29.08;21.30;;;;;;;;;;5116824;27;20049;-59
2020/12/01 09:36:43;;;;;;;26.98;19.50;;;;;;;;;;5114699;27;20038;-60
2020/12/01 09:39:30;;;;;;;26.60;18.95;;;;;;;;;;5102720;27;20134;-60
2020/12/01 09:42:31;;;;;;;27.73;20.17;;;;;;;;;;5115337;27;20115;-60
2020/12/01 09:45:37;;;;;;;27.10;19.50;;;;;;;;;;5118884;27;20040;-60
2020/12/01 09:48:44;;;;;;;26.42;18.55;;;;;;;;;;5115314;27;20200;-61
2020/12/01 09:51:30;;;;;;;26.23;19.60;;;;;;;;;;5113169;27;20073;-61
2020/12/01 09:54:27;;;;;;;26.63;20.33;;;;;;;;;;5115611;27;20057;-61
2020/12/01 09:57:33;;;;;;;26.25;20.50;;;;;;;;;;5117940;27;20676;-61
2020/12/01 10:00:46;;;;;;;25.88;20.10;;;;;;;;;;5113713;27;20050;-61
2020/12/01 10:09:49;;;;;;;32.25;23.83;;;;;;;;;;5117750;27;20035;-62
2020/12/01 10:36:26;;;;;;;27.65;20.33;;;;;;;;;;5114102;28;20035;-67
2020/12/01 10:39:11;;;;;;;24.88;20.77;;;;;;;;;;5117170;27;20524;-67
2020/12/01 10:41:57;;;;;;;23.55;19.00;;;;;;;;;;5111698;28;20035;-67
2020/12/01 10:44:43;;;;;;;29.40;20.85;;;;;;;;;;5111321;28;20031;-67
2020/12/01 10:47:28;;;;;;;27.52;19.60;;;;;;;;;;5113979;28;20046;-67
2020/12/01 10:50:18;;;;;;;24.75;19.80;;;;;;;;;;5117102;27;20122;-67
2020/12/01 10:53:04;;;;;;;28.80;21.15;;;;;;;;;;5096827;28;20040;-66
2020/12/01 10:55:49;;;;;;;24.00;19.10;;;;;;;;;;5114557;27;20077;-68
2020/12/01 10:58:35;;;;;;;25.50;20.58;;;;;;;;;;5115832;27;20127;-66
2020/12/01 11:01:21;;;;;;;26.23;19.83;;;;;;;;;;5119639;27;20053;-66
2020/12/01 11:04:06;;;;;;;25.92;20.48;;;;;;;;;;5120005;27;20493;-67
2020/12/01 11:06:52;;;;;;;26.13;19.38;;;;;;;;;;5117293;27;20032;-66
2020/12/01 11:09:38;;;;;;;28.08;20.42;;;;;;;;;;5118319;27;20111;-66
2020/12/01 11:12:24;;;;;;;28.13;20.90;;;;;;;;;;5118506;27;20697;-66
2020/12/01 11:15:10;;;;;;;44.95;28.30;;;;;;;;;;5120071;27;20050;-66
2020/12/01 11:17:55;;;;;;;28.77;20.58;;;;;;;;;;5118865;27;20047;-65
2020/12/01 11:20:41;;;;;;;27.48;19.98;;;;;;;;;;5119798;27;20027;-66
2020/12/01 11:23:27;;;;;;;41.08;24.08;;;;;;;;;;5116475;27;20024;-66
2020/12/01 11:26:20;;;;;;;31.02;21.77;;;;;;;;;;5119565;27;20462;-66
2020/12/01 11:29:06;;;;;;;32.22;23.48;;;;;;;;;;5114753;27;20039;-66
2020/12/01 11:31:51;;;;;;;25.83;20.88;;;;;;;;;;5116380;27;20031;-64
2020/12/01 11:34:37;;;;;;;25.13;21.02;;;;;;;;;;5119670;27;20528;-66
2020/12/01 11:37:23;;;;;;;25.35;20.35;;;;;;;;;;5117198;27;20034;-66
2020/12/01 11:40:09;;;;;;;23.92;19.70;;;;;;;;;;5115725;27;20134;-64
2020/12/01 11:42:55;;;;;;;23.50;19.00;;;;;;;;;;5109234;27;20035;-65
2020/12/01 11:45:41;;;;;;;26.95;20.13;;;;;;;;;;5116990;27;20102;-65
2020/12/01 11:48:26;;;;;;;24.33;20.35;;;;;;;;;;5110134;27;20470;-64
2020/12/01 11:51:14;;;;;;;28.10;20.58;;;;;;;;;;5114235;27;20716;-64
2020/12/01 11:54:01;;;;;;;26.20;20.77;;;;;;;;;;5117100;27;20027;-67
2020/12/01 11:56:47;;;;;;;29.92;21.50;;;;;;;;;;5115988;27;20031;-66
2020/12/01 11:59:33;;;;;;;31.45;21.25;;;;;;;;;;5116743;27;20130;-66
2020/12/01 12:02:19;;;;;;;30.25;22.55;;;;;;;;;;5115607;27;20106;-66
2020/12/01 12:05:04;;;;;;;32.28;24.40;;;;;;;;;;5114885;27;20031;-66
2020/12/01 12:07:50;;;;;;;29.75;22.70;;;;;;;;;;5115380;27;20428;-64
2020/12/01 12:10:36;;;;;;;35.67;21.88;;;;;;;;;;5116864;27;20063;-63
2020/12/01 12:13:22;;;;;;;30.27;21.52;;;;;;;;;;5112230;27;20036;-66
2020/12/01 12:16:07;;;;;;;27.70;22.33;;;;;;;;;;5115779;27;20042;-66
2020/12/01 12:18:53;;;;;;;31.98;22.33;;;;;;;;;;5115466;27;20476;-64
2020/12/01 12:21:39;;;;;;;29.38;22.85;;;;;;;;;;5116288;27;20122;-66
2020/12/01 12:24:24;;;;;;;29.42;21.95;;;;;;;;;;5117563;27;20035;-64
2020/12/01 12:27:10;;;;;;;34.30;24.63;;;;;;;;;;5114865;27;20031;-64
2020/12/01 12:29:55;;;;;;;29.83;23.17;;;;;;;;;;5117674;27;20039;-65
2020/12/01 12:32:41;;;;;;;30.83;23.77;;;;;;;;;;5115119;27;20028;-64
2020/12/01 12:35:27;;;;;;;29.05;22.50;;;;;;;;;;5116832;27;20563;-64
2020/12/01 12:38:13;;;;;;;33.60;22.98;;;;;;;;;;5114993;27;20038;-66
2020/12/01 12:40:59;;;;;;;27.83;22.40;;;;;;;;;;5102622;27;20035;-66
2020/12/01 12:43:44;;;;;;;33.88;24.33;;;;;;;;;;5115108;27;20088;-66
2020/12/01 12:46:31;;;;;;;32.05;23.75;;;;;;;;;;5101459;27;20385;-66
2020/12/01 12:49:16;;;;;;;32.20;22.38;;;;;;;;;;5116908;27;20028;-67
2020/12/01 12:52:02;;;;;;;29.15;22.83;;;;;;;;;;5114887;27;20043;-66
2020/12/01 12:54:48;;;;;;;29.40;22.98;;;;;;;;;;5115997;27;20540;-66
2020/12/01 12:57:34;;;;;;;37.08;24.38;;;;;;;;;;5116035;27;20436;-66
2020/12/01 13:00:20;;;;;;;33.92;24.95;;;;;;;;;;5117317;27;20508;-66
2020/12/01 13:03:06;;;;;;;32.15;23.70;;;;;;;;;;5114305;27;20039;-66
2020/12/01 13:05:51;;;;;;;33.38;23.42;;;;;;;;;;5112370;27;20035;-65
2020/12/01 13:08:37;;;;;;;29.42;23.00;;;;;;;;;;5104842;27;20628;-66
2020/12/01 13:11:23;;;;;;;33.38;24.52;;;;;;;;;;5105264;27;20043;-65
2020/12/01 13:14:09;;;;;;;31.58;22.80;;;;;;;;;;5116380;27;20058;-65
2020/12/01 13:16:55;;;;;;;35.78;23.13;;;;;;;;;;5111155;27;20055;-66
2020/12/01 13:19:40;;;;;;;33.17;24.15;;;;;;;;;;5114273;27;20028;-66
2020/12/01 13:22:29;;;;;;;34.85;24.80;;;;;;;;;;5108827;27;20040;-66
2020/12/01 13:25:16;;;;;;;31.25;23.58;;;;;;;;;;5116249;27;20024;-64
2020/12/01 13:28:02;;;;;;;38.88;23.73;;;;;;;;;;5113167;27;20436;-63
2020/12/01 13:30:54;;;;;;;32.25;23.45;;;;;;;;;;5117045;27;20068;-65
2020/12/01 13:33:40;;;;;;;29.58;23.95;;;;;;;;;;5111794;27;20035;-66
2020/12/01 13:36:26;;;;;;;40.03;24.25;;;;;;;;;;5115004;27;20027;-65
2020/12/01 13:39:13;;;;;;;29.50;23.20;;;;;;;;;;5115701;27;20058;-63
2020/12/01 13:41:59;;;;;;;35.88;24.02;;;;;;;;;;5112175;27;20043;-63
2020/12/01 13:44:44;;;;;;;34.03;25.30;;;;;;;;;;5115241;27;20123;-67
2020/12/01 13:47:30;;;;;;;35.67;25.35;;;;;;;;;;5114688;27;20091;-63
2020/12/01 13:50:23;;;;;;;35.88;23.30;;;;;;;;;;5117387;27;20368;-66
2020/12/01 13:53:08;;;;;;;36.92;24.50;;;;;;;;;;5115972;27;20452;-66
2020/12/01 13:55:54;;;;;;;37.45;25.40;;;;;;;;;;5119094;27;20270;-67
2020/12/01 13:58:40;;;;;;;36.25;24.42;;;;;;;;;;5115597;27;20049;-67
2020/12/01 14:01:29;;;;;;;36.17;25.00;;;;;;;;;;5114788;27;20066;-64
2020/12/01 14:04:15;;;;;;;34.20;23.77;;;;;;;;;;5115275;27;20064;-63
2020/12/01 14:07:01;;;;;;;33.22;23.27;;;;;;;;;;5114639;27;20141;-66
2020/12/01 14:09:46;;;;;;;36.22;25.15;;;;;;;;;;5115823;27;20031;-66
2020/12/01 14:12:32;;;;;;;33.03;24.15;;;;;;;;;;5113678;27;20104;-66
2020/12/01 14:15:19;;;;;;;34.60;24.55;;;;;;;;;;5114552;27;20466;-67
2020/12/01 14:18:05;;;;;;;34.33;24.33;;;;;;;;;;5100284;27;20121;-66
2020/12/01 14:20:50;;;;;;;35.28;24.23;;;;;;;;;;5117853;27;20095;-62
2020/12/01 14:23:37;;;;;;;38.25;25.80;;;;;;;;;;5113918;27;20605;-63
2020/12/01 14:26:22;;;;;;;31.50;24.17;;;;;;;;;;5113167;27;20038;-63
2020/12/01 14:29:08;;;;;;;35.30;24.98;;;;;;;;;;5114525;27;20032;-67
2020/12/01 14:31:54;;;;;;;34.13;24.98;;;;;;;;;;5102878;27;20108;-63
2020/12/01 14:34:40;;;;;;;37.63;25.15;;;;;;;;;;5114154;27;20046;-63
2020/12/01 14:37:26;;;;;;;31.73;25.25;;;;;;;;;;5112869;28;20034;-63
2020/12/01 14:40:13;;;;;;;34.22;25.27;;;;;;;;;;5114774;28;20508;-63
2020/12/01 14:43:01;;;;;;;34.63;26.17;;;;;;;;;;5114233;27;20123;-63
2020/12/01 14:45:50;;;;;;;36.53;27.10;;;;;;;;;;5115419;27;20043;-63
2020/12/01 14:49:01;;;;;;;36.60;25.75;;;;;;;;;;5098475;28;20467;-63
2020/12/01 14:52:04;;;;;;;39.45;26.52;;;;;;;;;;5113758;28;20144;-63
2020/12/01 14:55:06;;;;;;;34.45;24.25;;;;;;;;;;5103357;28;20035;-63
2020/12/01 14:58:14;;;;;;;37.10;25.42;;;;;;;;;;5114632;28;20035;-63
2020/12/01 15:01:22;;;;;;;37.35;25.67;;;;;;;;;;5113770;28;20024;-63
2020/12/01 15:04:40;;;;;;;36.88;25.92;;;;;;;;;;5112912;28;20147;-63
2020/12/01 15:07:31;;;;;;;34.47;23.63;;;;;;;;;;5110884;28;20027;-63
2020/12/01 15:10:27;;;;;;;35.33;27.23;;;;;;;;;;5096908;28;20441;-63
2020/12/01 15:13:13;;;;;;;36.20;25.33;;;;;;;;;;5112836;28;20101;-63
2020/12/01 15:15:59;;;;;;;37.42;25.10;;;;;;;;;;5114721;28;20165;-63
2020/12/01 15:18:49;;;;;;;39.92;25.20;;;;;;;;;;5101103;28;20130;-62
2020/12/01 15:21:45;;;;;;;45.28;28.23;;;;;;;;;;5118534;27;20055;-62
2020/12/01 15:24:32;;;;;;;38.33;27.42;;;;;;;;;;5115570;28;20035;-62
2020/12/01 15:27:22;;;;;;;41.67;27.45;;;;;;;;;;5111877;28;20027;-63
2020/12/01 15:30:13;;;;;;;38.20;28.25;;;;;;;;;;5112140;28;20135;-62
2020/12/01 15:32:59;;;;;;;347.98;183.43;;;;;;;;;;5111640;28;20031;-63
2020/12/01 15:35:47;;;;;;;62.28;37.75;;;;;;;;;;5113115;28;20059;-66
2020/12/01 15:38:36;;;;;;;45.30;29.77;;;;;;;;;;5112156;27;20467;-66
2020/12/01 15:41:22;;;;;;;44.30;27.67;;;;;;;;;;5111762;28;20605;-62
2020/12/01 15:44:08;;;;;;;41.55;30.85;;;;;;;;;;5114462;27;20027;-62
2020/12/01 15:46:54;;;;;;;54.67;36.30;;;;;;;;;;5099920;27;20044;-63
2020/12/01 15:49:40;;;;;;;91.05;55.03;;;;;;;;;;5104230;27;20102;-62
2020/12/01 15:52:56;;;;;;;61.63;36.95;;;;;;;;;;5115413;27;20023;-63
2020/12/01 15:56:02;;;;;;;58.38;38.15;;;;;;;;;;5104847;27;20180;-63
2020/12/01 15:58:54;;;;;;;67.22;44.20;;;;;;;;;;5121014;27;20094;-64
2020/12/01 16:02:16;;;;;;;41.80;29.88;;;;;;;;;;5116346;27;20085;-63
2020/12/01 16:05:44;;;;;;;43.53;28.48;;;;;;;;;;5118023;27;20031;-63
2020/12/01 16:08:49;;;;;;;38.10;26.85;;;;;;;;;;5117244;27;20043;-63
2020/12/01 16:11:46;;;;;;;37.35;26.92;;;;;;;;;;5117325;27;20035;-63
2020/12/01 16:14:58;;;;;;;40.67;28.27;;;;;;;;;;5100884;27;20037;-63
2020/12/01 16:17:49;;;;;;;40.10;28.90;;;;;;;;;;5113966;27;20491;-63
2020/12/01 16:21:03;;;;;;;46.10;30.65;;;;;;;;;;5120596;27;20039;-63
2020/12/01 16:24:03;;;;;;;34.25;26.17;;;;;;;;;;5116441;27;20089;-63
2020/12/01 16:27:07;;;;;;;47.00;28.25;;;;;;;;;;5114341;27;20043;-63
2020/12/01 16:30:19;;;;;;;38.92;28.10;;;;;;;;;;5115609;27;20039;-63
2020/12/01 16:33:07;;;;;;;38.28;28.13;;;;;;;;;;5114257;27;20418;-63
2020/12/01 16:35:54;;;;;;;42.53;28.67;;;;;;;;;;5117303;27;20114;-63
2020/12/01 16:39:04;;;;;;;41.67;28.80;;;;;;;;;;5116467;27;20532;-63
2020/12/01 16:41:51;;;;;;;38.67;26.45;;;;;;;;;;5097462;27;20074;-63
2020/12/01 16:44:53;;;;;;;35.60;26.38;;;;;;;;;;5116028;27;20062;-63
2020/12/01 16:47:45;;;;;;;;;;;;;;;;;;5116901;27;20375;-63
2020/12/01 16:50:36;;;;;;;37.25;26.85;;;;;;;;;;5117093;27;19907;-63
2020/12/01 16:53:22;;;;;;;42.70;29.70;;;;;;;;;;5116660;27;20480;-62
2020/12/01 16:56:45;;;;;;;40.20;28.02;;;;;;;;;;5119316;27;20524;-63
2020/12/01 16:59:46;;;;;;;35.60;25.35;;;;;;;;;;5114764;27;20035;-63
2020/12/01 17:02:53;;;;;;;42.17;27.25;;;;;;;;;;5115092;27;20033;-64
2020/12/01 17:06:12;;;;;;;37.38;24.77;;;;;;;;;;5117823;27;20027;-64
2020/12/01 17:08:58;;;;;;;37.60;26.27;;;;;;;;;;5113425;27;20903;-65
2020/12/01 17:12:31;;;;;;;43.22;25.98;;;;;;;;;;5118018;27;20088;-65